Kezdőlap
METAR-TAF:

METAR-TAF

Repülőterek :

Angers, Franciaország

földrajzi szélesség: 47-33-37N, földrajzi hosszúság: 000-18-44W, magasság: 59 m

Jelenlegi meteorológiai megfigyelések

A jelentés 29 perccel ezelõtt készült, 12:00 UTC
Dél-délnyugati szél 8 kt, déli és nyugat-délnyugati között változik
Hőmérséklet 11°C
Páratartalom 76%
Légköri nyomás 1006 hPa
Látótávolság 10 km, vagy több
Kevés felhő 3300 lábon
Borult 5600 lábon

METAR: LFJR 151200Z AUTO 20008KT 180V240 9999 FEW033 OVC056 11/07 Q1006

Idő: 13:29 (12:29 UTC)


TAF: hiányzik

Meteorológiai megfigyelések és előrejelzések több, mint 4000 repülőtéren (METAR és TAF jelentéseket).

A térképen piros és sárga pontok jelzik az elérhető meteorológiai állomásokat.

Mozgassa az egeret a pont fölött, hogy megjelenjen az állomás neve.

Azután kattintson az időjárási megfigyelések és előrejelzések megtekintéséhez.

A térkép megváltoztatása: kattintson a fekete keresztel jelölt zöld gombra ráközelítéshez, a vonallal jelölt zöld gombra távolításhoz, vagy a zöld nyilakra a szomszédos térképek eléréséhez.


METAR-TAF: